sensor_id;sensor_type;location;lat;lon;timestamp;P1;durP1;ratioP1;P2;durP2;ratioP2
6640;SDS011;3356;49.360;8.266;2022-08-05T00:00:18;11.87;;;2.70;;
6640;SDS011;3356;49.360;8.266;2022-08-05T00:02:20;7.20;;;2.43;;
6640;SDS011;3356;49.360;8.266;2022-08-05T00:04:23;5.27;;;2.80;;
6640;SDS011;3356;49.360;8.266;2022-08-05T00:06:25;7.93;;;2.77;;
6640;SDS011;3356;49.360;8.266;2022-08-05T00:08:29;7.43;;;3.00;;
6640;SDS011;3356;49.360;8.266;2022-08-05T00:10:31;5.37;;;2.70;;
6640;SDS011;3356;49.360;8.266;2022-08-05T00:12:36;10.60;;;3.67;;
6640;SDS011;3356;49.360;8.266;2022-08-05T00:14:39;8.03;;;2.90;;
6640;SDS011;3356;49.360;8.266;2022-08-05T00:16:43;7.00;;;3.00;;
6640;SDS011;3356;49.360;8.266;2022-08-05T00:18:46;8.53;;;3.07;;
6640;SDS011;3356;49.360;8.266;2022-08-05T00:20:52;5.90;;;3.40;;
6640;SDS011;3356;49.360;8.266;2022-08-05T00:22:55;6.47;;;2.70;;
6640;SDS011;3356;49.360;8.266;2022-08-05T00:24:59;16.20;;;3.67;;
6640;SDS011;3356;49.360;8.266;2022-08-05T00:27:01;10.90;;;3.07;;
6640;SDS011;3356;49.360;8.266;2022-08-05T00:29:05;10.60;;;3.37;;
6640;SDS011;3356;49.360;8.266;2022-08-05T00:31:07;6.93;;;2.97;;
6640;SDS011;3356;49.360;8.266;2022-08-05T00:33:10;6.70;;;3.27;;
6640;SDS011;3356;49.360;8.266;2022-08-05T00:35:12;6.33;;;3.33;;
6640;SDS011;3356;49.360;8.266;2022-08-05T00:37:14;8.90;;;3.30;;
6640;SDS011;3356;49.360;8.266;2022-08-05T00:39:16;5.63;;;2.97;;
6640;SDS011;3356;49.360;8.266;2022-08-05T00:41:31;7.97;;;3.30;;
6640;SDS011;3356;49.360;8.266;2022-08-05T00:43:38;7.50;;;3.67;;
6640;SDS011;3356;49.360;8.266;2022-08-05T00:45:40;9.93;;;3.30;;
6640;SDS011;3356;49.360;8.266;2022-08-05T00:47:44;5.47;;;3.47;;
6640;SDS011;3356;49.360;8.266;2022-08-05T00:49:46;4.13;;;3.37;;
6640;SDS011;3356;49.360;8.266;2022-08-05T00:51:50;9.57;;;2.93;;
6640;SDS011;3356;49.360;8.266;2022-08-05T00:53:51;7.67;;;2.80;;
6640;SDS011;3356;49.360;8.266;2022-08-05T00:55:53;4.10;;;3.23;;
6640;SDS011;3356;49.360;8.266;2022-08-05T00:57:56;10.73;;;3.40;;
6640;SDS011;3356;49.360;8.266;2022-08-05T01:00:00;7.40;;;3.10;;
6640;SDS011;3356;49.360;8.266;2022-08-05T01:02:02;11.63;;;3.23;;
6640;SDS011;3356;49.360;8.266;2022-08-05T01:04:05;4.83;;;3.30;;
6640;SDS011;3356;49.360;8.266;2022-08-05T01:06:10;7.80;;;3.73;;
6640;SDS011;3356;49.360;8.266;2022-08-05T01:08:12;6.90;;;3.47;;
6640;SDS011;3356;49.360;8.266;2022-08-05T01:10:15;8.10;;;3.83;;
6640;SDS011;3356;49.360;8.266;2022-08-05T01:12:24;7.27;;;3.67;;
6640;SDS011;3356;49.360;8.266;2022-08-05T01:16:56;3.80;;;3.40;;
6640;SDS011;3356;49.360;8.266;2022-08-05T01:19:10;7.57;;;3.87;;
6640;SDS011;3356;49.360;8.266;2022-08-05T01:24:09;5.43;;;2.93;;
6640;SDS011;3356;49.360;8.266;2022-08-05T01:26:39;6.47;;;3.27;;
6640;SDS011;3356;49.360;8.266;2022-08-05T01:28:53;7.33;;;3.30;;
6640;SDS011;3356;49.360;8.266;2022-08-05T01:31:06;4.17;;;3.33;;
6640;SDS011;3356;49.360;8.266;2022-08-05T01:34:14;5.90;;;3.50;;
6640;SDS011;3356;49.360;8.266;2022-08-05T01:36:19;6.87;;;3.67;;
6640;SDS011;3356;49.360;8.266;2022-08-05T01:38:26;4.60;;;3.13;;
6640;SDS011;3356;49.360;8.266;2022-08-05T01:40:32;5.67;;;3.57;;
6640;SDS011;3356;49.360;8.266;2022-08-05T01:42:35;4.93;;;3.50;;
6640;SDS011;3356;49.360;8.266;2022-08-05T01:44:39;5.07;;;3.60;;
6640;SDS011;3356;49.360;8.266;2022-08-05T01:46:44;4.43;;;3.57;;
6640;SDS011;3356;49.360;8.266;2022-08-05T01:48:47;11.07;;;4.30;;
6640;SDS011;3356;49.360;8.266;2022-08-05T01:50:52;8.67;;;3.43;;
6640;SDS011;3356;49.360;8.266;2022-08-05T01:53:03;7.33;;;3.63;;
6640;SDS011;3356;49.360;8.266;2022-08-05T01:55:08;5.17;;;3.53;;
6640;SDS011;3356;49.360;8.266;2022-08-05T01:57:13;8.70;;;3.43;;
6640;SDS011;3356;49.360;8.266;2022-08-05T01:59:20;6.23;;;4.13;;
6640;SDS011;3356;49.360;8.266;2022-08-05T02:01:27;10.03;;;4.43;;
6640;SDS011;3356;49.360;8.266;2022-08-05T02:03:39;5.17;;;3.93;;
6640;SDS011;3356;49.360;8.266;2022-08-05T02:05:44;5.23;;;3.80;;
6640;SDS011;3356;49.360;8.266;2022-08-05T02:07:48;6.33;;;3.80;;
6640;SDS011;3356;49.360;8.266;2022-08-05T02:09:53;4.93;;;3.40;;
6640;SDS011;3356;49.360;8.266;2022-08-05T02:12:07;7.13;;;4.40;;
6640;SDS011;3356;49.360;8.266;2022-08-05T02:14:31;4.03;;;3.67;;
6640;SDS011;3356;49.360;8.266;2022-08-05T02:16:43;9.23;;;4.10;;
6640;SDS011;3356;49.360;8.266;2022-08-05T02:18:59;7.57;;;3.90;;
6640;SDS011;3356;49.360;8.266;2022-08-05T02:21:21;6.97;;;4.27;;
6640;SDS011;3356;49.360;8.266;2022-08-05T02:23:30;4.77;;;4.10;;
6640;SDS011;3356;49.360;8.266;2022-08-05T02:25:34;5.90;;;3.70;;
6640;SDS011;3356;49.360;8.266;2022-08-05T02:27:39;9.27;;;4.07;;
6640;SDS011;3356;49.360;8.266;2022-08-05T02:29:43;8.17;;;3.87;;
6640;SDS011;3356;49.360;8.266;2022-08-05T02:31:47;7.53;;;3.80;;
6640;SDS011;3356;49.360;8.266;2022-08-05T02:33:52;5.27;;;3.80;;
6640;SDS011;3356;49.360;8.266;2022-08-05T02:35:58;7.37;;;4.17;;
6640;SDS011;3356;49.360;8.266;2022-08-05T02:38:08;5.93;;;4.63;;
6640;SDS011;3356;49.360;8.266;2022-08-05T02:40:18;5.83;;;3.60;;
6640;SDS011;3356;49.360;8.266;2022-08-05T02:42:24;5.87;;;3.33;;
6640;SDS011;3356;49.360;8.266;2022-08-05T02:44:28;5.77;;;4.00;;
6640;SDS011;3356;49.360;8.266;2022-08-05T02:46:34;4.03;;;3.63;;
6640;SDS011;3356;49.360;8.266;2022-08-05T02:48:39;4.37;;;3.83;;
6640;SDS011;3356;49.360;8.266;2022-08-05T02:50:44;4.77;;;3.80;;
6640;SDS011;3356;49.360;8.266;2022-08-05T02:52:50;7.57;;;3.77;;
6640;SDS011;3356;49.360;8.266;2022-08-05T02:54:54;6.10;;;4.20;;
6640;SDS011;3356;49.360;8.266;2022-08-05T02:56:56;6.83;;;3.60;;
6640;SDS011;3356;49.360;8.266;2022-08-05T02:59:02;8.03;;;4.30;;
6640;SDS011;3356;49.360;8.266;2022-08-05T03:01:06;5.77;;;4.60;;
6640;SDS011;3356;49.360;8.266;2022-08-05T03:03:11;7.00;;;4.53;;
6640;SDS011;3356;49.360;8.266;2022-08-05T03:05:20;6.57;;;4.23;;
6640;SDS011;3356;49.360;8.266;2022-08-05T03:07:22;7.67;;;4.30;;
6640;SDS011;3356;49.360;8.266;2022-08-05T03:09:27;5.47;;;3.73;;
6640;SDS011;3356;49.360;8.266;2022-08-05T03:11:32;7.63;;;5.00;;
6640;SDS011;3356;49.360;8.266;2022-08-05T03:13:34;12.20;;;4.67;;
6640;SDS011;3356;49.360;8.266;2022-08-05T03:15:41;6.80;;;3.93;;
6640;SDS011;3356;49.360;8.266;2022-08-05T03:17:46;6.63;;;4.27;;
6640;SDS011;3356;49.360;8.266;2022-08-05T03:19:51;7.57;;;4.53;;
6640;SDS011;3356;49.360;8.266;2022-08-05T03:21:53;6.67;;;4.23;;
6640;SDS011;3356;49.360;8.266;2022-08-05T03:23:56;4.80;;;4.00;;
6640;SDS011;3356;49.360;8.266;2022-08-05T03:26:00;4.60;;;4.10;;
6640;SDS011;3356;49.360;8.266;2022-08-05T03:28:03;5.37;;;4.43;;
6640;SDS011;3356;49.360;8.266;2022-08-05T03:30:07;6.10;;;4.40;;
6640;SDS011;3356;49.360;8.266;2022-08-05T03:32:11;9.53;;;4.10;;
6640;SDS011;3356;49.360;8.266;2022-08-05T03:34:17;6.73;;;3.97;;
6640;SDS011;3356;49.360;8.266;2022-08-05T03:36:19;5.20;;;4.17;;
6640;SDS011;3356;49.360;8.266;2022-08-05T03:38:22;7.27;;;4.07;;
6640;SDS011;3356;49.360;8.266;2022-08-05T03:40:27;5.40;;;4.23;;
6640;SDS011;3356;49.360;8.266;2022-08-05T03:42:30;7.77;;;4.80;;
6640;SDS011;3356;49.360;8.266;2022-08-05T03:44:31;10.13;;;4.70;;
6640;SDS011;3356;49.360;8.266;2022-08-05T03:46:33;7.00;;;4.47;;
6640;SDS011;3356;49.360;8.266;2022-08-05T03:48:36;8.20;;;4.13;;
6640;SDS011;3356;49.360;8.266;2022-08-05T03:52:57;13.03;;;4.03;;
6640;SDS011;3356;49.360;8.266;2022-08-05T03:55:06;5.30;;;4.10;;
6640;SDS011;3356;49.360;8.266;2022-08-05T03:57:12;7.40;;;3.43;;
6640;SDS011;3356;49.360;8.266;2022-08-05T03:59:24;5.80;;;3.80;;
6640;SDS011;3356;49.360;8.266;2022-08-05T04:01:56;5.30;;;3.05;;
6640;SDS011;3356;49.360;8.266;2022-08-05T04:04:04;6.07;;;3.60;;
6640;SDS011;3356;49.360;8.266;2022-08-05T04:06:11;3.77;;;3.00;;
6640;SDS011;3356;49.360;8.266;2022-08-05T04:08:13;7.50;;;3.10;;
6640;SDS011;3356;49.360;8.266;2022-08-05T04:10:17;4.30;;;3.27;;
6640;SDS011;3356;49.360;8.266;2022-08-05T04:12:25;3.50;;;2.53;;
6640;SDS011;3356;49.360;8.266;2022-08-05T04:14:31;3.37;;;2.77;;
6640;SDS011;3356;49.360;8.266;2022-08-05T04:16:36;3.67;;;2.90;;
6640;SDS011;3356;49.360;8.266;2022-08-05T04:18:39;3.23;;;2.60;;
6640;SDS011;3356;49.360;8.266;2022-08-05T04:20:42;3.30;;;2.90;;
6640;SDS011;3356;49.360;8.266;2022-08-05T04:22:44;4.07;;;2.30;;
6640;SDS011;3356;49.360;8.266;2022-08-05T04:24:55;5.37;;;2.83;;
6640;SDS011;3356;49.360;8.266;2022-08-05T04:26:58;3.47;;;2.77;;
6640;SDS011;3356;49.360;8.266;2022-08-05T04:29:00;2.43;;;2.27;;
6640;SDS011;3356;49.360;8.266;2022-08-05T04:31:03;2.47;;;2.27;;
6640;SDS011;3356;49.360;8.266;2022-08-05T04:33:07;4.23;;;2.50;;
6640;SDS011;3356;49.360;8.266;2022-08-05T04:35:09;4.43;;;2.50;;
6640;SDS011;3356;49.360;8.266;2022-08-05T04:37:12;2.73;;;2.30;;
6640;SDS011;3356;49.360;8.266;2022-08-05T04:39:14;3.03;;;2.47;;
6640;SDS011;3356;49.360;8.266;2022-08-05T04:41:17;4.93;;;2.70;;
6640;SDS011;3356;49.360;8.266;2022-08-05T04:43:19;5.23;;;2.43;;
6640;SDS011;3356;49.360;8.266;2022-08-05T04:45:22;4.20;;;2.53;;
6640;SDS011;3356;49.360;8.266;2022-08-05T04:47:25;4.10;;;2.37;;
6640;SDS011;3356;49.360;8.266;2022-08-05T04:49:28;5.03;;;2.67;;
6640;SDS011;3356;49.360;8.266;2022-08-05T04:51:33;7.83;;;2.60;;
6640;SDS011;3356;49.360;8.266;2022-08-05T04:53:35;3.17;;;2.60;;
6640;SDS011;3356;49.360;8.266;2022-08-05T04:55:40;2.60;;;2.40;;
6640;SDS011;3356;49.360;8.266;2022-08-05T04:57:46;3.03;;;2.37;;
6640;SDS011;3356;49.360;8.266;2022-08-05T04:59:47;3.87;;;2.00;;
6640;SDS011;3356;49.360;8.266;2022-08-05T05:01:48;4.03;;;2.63;;
6640;SDS011;3356;49.360;8.266;2022-08-05T05:03:50;7.33;;;2.67;;
6640;SDS011;3356;49.360;8.266;2022-08-05T05:05:51;3.90;;;2.13;;
6640;SDS011;3356;49.360;8.266;2022-08-05T05:07:53;6.70;;;2.70;;
6640;SDS011;3356;49.360;8.266;2022-08-05T05:09:55;3.70;;;2.63;;
6640;SDS011;3356;49.360;8.266;2022-08-05T05:11:57;3.90;;;2.60;;
6640;SDS011;3356;49.360;8.266;2022-08-05T05:13:58;3.87;;;2.47;;
6640;SDS011;3356;49.360;8.266;2022-08-05T05:15:59;2.53;;;2.33;;
6640;SDS011;3356;49.360;8.266;2022-08-05T05:18:00;3.27;;;2.60;;
6640;SDS011;3356;49.360;8.266;2022-08-05T05:20:01;6.03;;;2.67;;
6640;SDS011;3356;49.360;8.266;2022-08-05T05:22:03;4.47;;;2.93;;
6640;SDS011;3356;49.360;8.266;2022-08-05T05:24:04;3.83;;;3.00;;
6640;SDS011;3356;49.360;8.266;2022-08-05T05:26:05;3.83;;;2.40;;
6640;SDS011;3356;49.360;8.266;2022-08-05T05:28:10;5.63;;;2.87;;
6640;SDS011;3356;49.360;8.266;2022-08-05T05:30:15;8.70;;;2.90;;
6640;SDS011;3356;49.360;8.266;2022-08-05T05:32:16;5.33;;;2.73;;
6640;SDS011;3356;49.360;8.266;2022-08-05T05:34:18;5.70;;;2.63;;
6640;SDS011;3356;49.360;8.266;2022-08-05T05:36:19;2.90;;;2.20;;
6640;SDS011;3356;49.360;8.266;2022-08-05T05:38:20;4.20;;;2.53;;
6640;SDS011;3356;49.360;8.266;2022-08-05T05:40:22;3.17;;;2.87;;
6640;SDS011;3356;49.360;8.266;2022-08-05T05:42:24;4.07;;;2.43;;
6640;SDS011;3356;49.360;8.266;2022-08-05T05:44:25;2.97;;;2.77;;
6640;SDS011;3356;49.360;8.266;2022-08-05T05:46:26;3.13;;;2.60;;
6640;SDS011;3356;49.360;8.266;2022-08-05T05:48:27;4.30;;;2.20;;
6640;SDS011;3356;49.360;8.266;2022-08-05T05:50:28;3.10;;;2.70;;
6640;SDS011;3356;49.360;8.266;2022-08-05T05:52:30;3.50;;;2.80;;
6640;SDS011;3356;49.360;8.266;2022-08-05T05:54:31;4.17;;;2.20;;
6640;SDS011;3356;49.360;8.266;2022-08-05T05:56:32;6.47;;;2.90;;
6640;SDS011;3356;49.360;8.266;2022-08-05T05:58:33;3.83;;;2.50;;
6640;SDS011;3356;49.360;8.266;2022-08-05T06:00:34;2.93;;;2.57;;
6640;SDS011;3356;49.360;8.266;2022-08-05T06:02:36;2.83;;;2.40;;
6640;SDS011;3356;49.360;8.266;2022-08-05T06:04:37;5.10;;;2.37;;
6640;SDS011;3356;49.360;8.266;2022-08-05T06:06:42;6.33;;;3.00;;
6640;SDS011;3356;49.360;8.266;2022-08-05T06:08:44;5.17;;;2.70;;
6640;SDS011;3356;49.360;8.266;2022-08-05T06:10:45;4.00;;;2.83;;
6640;SDS011;3356;49.360;8.266;2022-08-05T06:12:46;3.93;;;3.00;;
6640;SDS011;3356;49.360;8.266;2022-08-05T06:14:47;3.50;;;2.47;;
6640;SDS011;3356;49.360;8.266;2022-08-05T06:16:48;2.57;;;2.40;;
6640;SDS011;3356;49.360;8.266;2022-08-05T06:18:49;5.83;;;3.13;;
6640;SDS011;3356;49.360;8.266;2022-08-05T06:20:50;3.20;;;2.60;;
6640;SDS011;3356;49.360;8.266;2022-08-05T06:22:52;3.50;;;2.43;;
6640;SDS011;3356;49.360;8.266;2022-08-05T06:24:53;4.83;;;3.03;;
6640;SDS011;3356;49.360;8.266;2022-08-05T06:26:54;3.53;;;2.90;;
6640;SDS011;3356;49.360;8.266;2022-08-05T06:28:55;4.40;;;2.40;;
6640;SDS011;3356;49.360;8.266;2022-08-05T06:30:56;4.87;;;2.53;;
6640;SDS011;3356;49.360;8.266;2022-08-05T06:32:57;3.80;;;2.20;;
6640;SDS011;3356;49.360;8.266;2022-08-05T06:34:59;3.03;;;2.53;;
6640;SDS011;3356;49.360;8.266;2022-08-05T06:37:00;4.90;;;2.60;;
6640;SDS011;3356;49.360;8.266;2022-08-05T06:39:01;2.60;;;2.37;;
6640;SDS011;3356;49.360;8.266;2022-08-05T06:41:03;2.50;;;2.30;;
6640;SDS011;3356;49.360;8.266;2022-08-05T06:43:04;3.67;;;2.53;;
6640;SDS011;3356;49.360;8.266;2022-08-05T06:45:06;4.63;;;2.67;;
6640;SDS011;3356;49.360;8.266;2022-08-05T06:47:08;2.60;;;2.40;;
6640;SDS011;3356;49.360;8.266;2022-08-05T06:49:09;2.57;;;2.37;;
6640;SDS011;3356;49.360;8.266;2022-08-05T06:51:11;2.93;;;2.10;;
6640;SDS011;3356;49.360;8.266;2022-08-05T06:53:12;3.40;;;1.87;;
6640;SDS011;3356;49.360;8.266;2022-08-05T06:55:14;4.17;;;2.57;;
6640;SDS011;3356;49.360;8.266;2022-08-05T06:57:16;8.00;;;2.80;;
6640;SDS011;3356;49.360;8.266;2022-08-05T06:59:18;2.57;;;2.37;;
6640;SDS011;3356;49.360;8.266;2022-08-05T07:01:22;2.93;;;1.97;;
6640;SDS011;3356;49.360;8.266;2022-08-05T07:03:24;3.30;;;2.37;;
6640;SDS011;3356;49.360;8.266;2022-08-05T07:05:25;3.50;;;2.40;;
6640;SDS011;3356;49.360;8.266;2022-08-05T07:07:26;2.63;;;1.93;;
6640;SDS011;3356;49.360;8.266;2022-08-05T07:09:27;2.67;;;2.33;;
6640;SDS011;3356;49.360;8.266;2022-08-05T07:11:29;4.80;;;2.13;;
6640;SDS011;3356;49.360;8.266;2022-08-05T07:13:32;5.23;;;2.13;;
6640;SDS011;3356;49.360;8.266;2022-08-05T07:15:52;2.37;;;2.00;;
6640;SDS011;3356;49.360;8.266;2022-08-05T07:18:12;4.60;;;1.90;;
6640;SDS011;3356;49.360;8.266;2022-08-05T07:20:13;1.97;;;1.77;;
6640;SDS011;3356;49.360;8.266;2022-08-05T07:22:14;1.90;;;1.77;;
6640;SDS011;3356;49.360;8.266;2022-08-05T07:24:16;5.23;;;1.73;;
6640;SDS011;3356;49.360;8.266;2022-08-05T07:26:18;1.67;;;1.57;;
6640;SDS011;3356;49.360;8.266;2022-08-05T07:28:19;4.00;;;1.83;;
6640;SDS011;3356;49.360;8.266;2022-08-05T07:30:20;2.63;;;1.80;;
6640;SDS011;3356;49.360;8.266;2022-08-05T07:32:21;1.63;;;1.53;;
6640;SDS011;3356;49.360;8.266;2022-08-05T07:34:22;2.33;;;1.60;;
6640;SDS011;3356;49.360;8.266;2022-08-05T07:36:24;1.50;;;1.40;;
6640;SDS011;3356;49.360;8.266;2022-08-05T07:38:25;3.93;;;2.03;;
6640;SDS011;3356;49.360;8.266;2022-08-05T07:40:27;3.03;;;1.73;;
6640;SDS011;3356;49.360;8.266;2022-08-05T07:42:28;1.97;;;1.70;;
6640;SDS011;3356;49.360;8.266;2022-08-05T07:44:29;2.73;;;1.70;;
6640;SDS011;3356;49.360;8.266;2022-08-05T07:46:31;3.70;;;1.70;;
6640;SDS011;3356;49.360;8.266;2022-08-05T07:48:32;3.70;;;1.70;;
6640;SDS011;3356;49.360;8.266;2022-08-05T07:50:33;1.63;;;1.43;;
6640;SDS011;3356;49.360;8.266;2022-08-05T07:52:41;2.33;;;1.70;;
6640;SDS011;3356;49.360;8.266;2022-08-05T07:54:43;3.03;;;1.60;;
6640;SDS011;3356;49.360;8.266;2022-08-05T07:56:44;2.53;;;2.00;;
6640;SDS011;3356;49.360;8.266;2022-08-05T07:58:45;6.03;;;2.00;;
6640;SDS011;3356;49.360;8.266;2022-08-05T08:00:46;1.90;;;1.80;;
6640;SDS011;3356;49.360;8.266;2022-08-05T08:02:49;2.60;;;1.87;;
6640;SDS011;3356;49.360;8.266;2022-08-05T08:04:50;2.97;;;2.10;;
6640;SDS011;3356;49.360;8.266;2022-08-05T08:06:52;1.70;;;1.60;;
6640;SDS011;3356;49.360;8.266;2022-08-05T08:08:53;3.03;;;1.70;;
6640;SDS011;3356;49.360;8.266;2022-08-05T08:10:54;2.93;;;1.90;;
6640;SDS011;3356;49.360;8.266;2022-08-05T08:12:56;3.97;;;1.53;;
6640;SDS011;3356;49.360;8.266;2022-08-05T08:14:57;2.07;;;1.90;;
6640;SDS011;3356;49.360;8.266;2022-08-05T08:16:58;7.87;;;2.10;;
6640;SDS011;3356;49.360;8.266;2022-08-05T08:18:59;4.50;;;1.77;;
6640;SDS011;3356;49.360;8.266;2022-08-05T08:21:00;2.80;;;1.90;;
6640;SDS011;3356;49.360;8.266;2022-08-05T08:23:02;6.47;;;1.97;;
6640;SDS011;3356;49.360;8.266;2022-08-05T08:25:04;3.73;;;1.97;;
6640;SDS011;3356;49.360;8.266;2022-08-05T08:27:06;7.10;;;1.97;;
6640;SDS011;3356;49.360;8.266;2022-08-05T08:29:07;2.73;;;1.63;;
6640;SDS011;3356;49.360;8.266;2022-08-05T08:31:08;3.83;;;1.70;;
6640;SDS011;3356;49.360;8.266;2022-08-05T08:33:10;2.40;;;2.20;;
6640;SDS011;3356;49.360;8.266;2022-08-05T08:35:11;6.07;;;2.30;;
6640;SDS011;3356;49.360;8.266;2022-08-05T08:37:12;3.00;;;2.03;;
6640;SDS011;3356;49.360;8.266;2022-08-05T08:39:14;1.80;;;1.70;;
6640;SDS011;3356;49.360;8.266;2022-08-05T08:41:17;1.80;;;1.67;;
6640;SDS011;3356;49.360;8.266;2022-08-05T08:43:19;3.60;;;1.87;;
6640;SDS011;3356;49.360;8.266;2022-08-05T08:45:21;2.53;;;1.80;;
6640;SDS011;3356;49.360;8.266;2022-08-05T08:47:23;3.03;;;1.57;;
6640;SDS011;3356;49.360;8.266;2022-08-05T08:49:26;4.73;;;1.80;;
6640;SDS011;3356;49.360;8.266;2022-08-05T08:51:32;3.57;;;2.23;;
6640;SDS011;3356;49.360;8.266;2022-08-05T08:53:37;3.47;;;1.90;;
6640;SDS011;3356;49.360;8.266;2022-08-05T08:55:40;2.03;;;1.93;;
6640;SDS011;3356;49.360;8.266;2022-08-05T08:57:41;3.60;;;1.90;;
6640;SDS011;3356;49.360;8.266;2022-08-05T08:59:43;2.13;;;1.97;;
6640;SDS011;3356;49.360;8.266;2022-08-05T09:01:45;4.30;;;1.40;;
6640;SDS011;3356;49.360;8.266;2022-08-05T09:03:51;3.03;;;1.67;;
6640;SDS011;3356;49.360;8.266;2022-08-05T09:05:53;4.07;;;1.58;;
6640;SDS011;3356;49.360;8.266;2022-08-05T09:07:54;2.38;;;1.63;;
6640;SDS011;3356;49.360;8.266;2022-08-05T09:09:56;1.40;;;1.30;;
6640;SDS011;3356;49.360;8.266;2022-08-05T09:11:57;2.33;;;1.50;;
6640;SDS011;3356;49.360;8.266;2022-08-05T09:13:58;1.50;;;1.30;;
6640;SDS011;3356;49.360;8.266;2022-08-05T09:16:00;1.67;;;1.35;;
6640;SDS011;3356;49.360;8.266;2022-08-05T09:18:04;1.98;;;1.50;;
6640;SDS011;3356;49.360;8.266;2022-08-05T09:20:07;1.40;;;1.30;;
6640;SDS011;3356;49.360;8.266;2022-08-05T09:22:08;1.40;;;1.30;;
6640;SDS011;3356;49.360;8.266;2022-08-05T09:24:09;1.27;;;1.27;;
6640;SDS011;3356;49.360;8.266;2022-08-05T09:26:13;1.70;;;1.60;;
6640;SDS011;3356;49.360;8.266;2022-08-05T09:28:19;1.75;;;1.65;;
6640;SDS011;3356;49.360;8.266;2022-08-05T09:30:27;1.70;;;1.60;;
6640;SDS011;3356;49.360;8.266;2022-08-05T09:32:34;1.27;;;1.27;;
6640;SDS011;3356;49.360;8.266;2022-08-05T09:34:50;1.65;;;1.55;;
6640;SDS011;3356;49.360;8.266;2022-08-05T09:36:55;1.75;;;1.50;;
6640;SDS011;3356;49.360;8.266;2022-08-05T09:39:01;1.88;;;1.77;;
6640;SDS011;3356;49.360;8.266;2022-08-05T09:41:09;2.20;;;1.58;;
6640;SDS011;3356;49.360;8.266;2022-08-05T09:43:27;1.67;;;1.58;;
6640;SDS011;3356;49.360;8.266;2022-08-05T09:45:39;1.52;;;1.40;;
6640;SDS011;3356;49.360;8.266;2022-08-05T09:47:41;1.85;;;1.40;;
6640;SDS011;3356;49.360;8.266;2022-08-05T09:49:44;1.88;;;1.33;;
6640;SDS011;3356;49.360;8.266;2022-08-05T09:51:50;4.68;;;1.38;;
6640;SDS011;3356;49.360;8.266;2022-08-05T09:53:52;3.67;;;1.65;;
6640;SDS011;3356;49.360;8.266;2022-08-05T09:55:55;1.58;;;1.48;;
6640;SDS011;3356;49.360;8.266;2022-08-05T09:57:58;1.42;;;1.33;;
6640;SDS011;3356;49.360;8.266;2022-08-05T10:00:00;3.10;;;1.42;;
6640;SDS011;3356;49.360;8.266;2022-08-05T10:02:05;2.65;;;1.35;;
6640;SDS011;3356;49.360;8.266;2022-08-05T10:04:12;1.30;;;1.30;;
6640;SDS011;3356;49.360;8.266;2022-08-05T10:06:14;3.05;;;1.48;;
6640;SDS011;3356;49.360;8.266;2022-08-05T10:08:23;1.48;;;1.35;;
6640;SDS011;3356;49.360;8.266;2022-08-05T10:10:27;1.75;;;1.65;;
6640;SDS011;3356;49.360;8.266;2022-08-05T10:12:31;1.65;;;1.55;;
6640;SDS011;3356;49.360;8.266;2022-08-05T10:14:40;2.22;;;1.30;;
6640;SDS011;3356;49.360;8.266;2022-08-05T10:16:41;2.20;;;1.77;;
6640;SDS011;3356;49.360;8.266;2022-08-05T10:18:42;1.75;;;1.48;;
6640;SDS011;3356;49.360;8.266;2022-08-05T10:20:54;2.15;;;1.60;;
6640;SDS011;3356;49.360;8.266;2022-08-05T10:22:57;1.55;;;1.45;;
6640;SDS011;3356;49.360;8.266;2022-08-05T10:24:59;3.22;;;1.73;;
6640;SDS011;3356;49.360;8.266;2022-08-05T10:27:00;1.80;;;1.70;;
6640;SDS011;3356;49.360;8.266;2022-08-05T10:29:01;3.00;;;1.95;;
6640;SDS011;3356;49.360;8.266;2022-08-05T10:31:03;1.95;;;1.73;;
6640;SDS011;3356;49.360;8.266;2022-08-05T10:33:04;1.48;;;1.48;;
6640;SDS011;3356;49.360;8.266;2022-08-05T10:35:06;3.10;;;1.70;;
6640;SDS011;3356;49.360;8.266;2022-08-05T10:37:07;2.33;;;1.88;;
6640;SDS011;3356;49.360;8.266;2022-08-05T10:41:28;1.52;;;1.48;;
6640;SDS011;3356;49.360;8.266;2022-08-05T10:43:38;2.28;;;2.03;;
6640;SDS011;3356;49.360;8.266;2022-08-05T10:45:57;2.03;;;1.92;;
6640;SDS011;3356;49.360;8.266;2022-08-05T10:48:04;2.42;;;2.25;;
6640;SDS011;3356;49.360;8.266;2022-08-05T10:50:31;2.25;;;2.15;;
6640;SDS011;3356;49.360;8.266;2022-08-05T10:52:37;2.30;;;2.15;;
6640;SDS011;3356;49.360;8.266;2022-08-05T10:55:03;4.20;;;2.25;;
6640;SDS011;3356;49.360;8.266;2022-08-05T10:57:07;2.00;;;1.90;;
6640;SDS011;3356;49.360;8.266;2022-08-05T10:59:16;3.10;;;1.88;;
6640;SDS011;3356;49.360;8.266;2022-08-05T11:06:06;2.22;;;2.10;;
6640;SDS011;3356;49.360;8.266;2022-08-05T11:08:10;2.35;;;2.20;;
6640;SDS011;3356;49.360;8.266;2022-08-05T11:10:20;2.30;;;2.10;;
6640;SDS011;3356;49.360;8.266;2022-08-05T11:14:37;3.53;;;2.65;;
6640;SDS011;3356;49.360;8.266;2022-08-05T11:16:38;2.75;;;2.47;;
6640;SDS011;3356;49.360;8.266;2022-08-05T11:18:40;2.15;;;2.05;;
6640;SDS011;3356;49.360;8.266;2022-08-05T11:20:42;2.47;;;2.33;;
6640;SDS011;3356;49.360;8.266;2022-08-05T11:22:47;3.08;;;2.50;;
6640;SDS011;3356;49.360;8.266;2022-08-05T11:25:25;3.33;;;2.60;;
6640;SDS011;3356;49.360;8.266;2022-08-05T11:27:35;4.32;;;2.85;;
6640;SDS011;3356;49.360;8.266;2022-08-05T11:29:36;4.10;;;2.40;;
6640;SDS011;3356;49.360;8.266;2022-08-05T11:31:42;3.65;;;2.25;;
6640;SDS011;3356;49.360;8.266;2022-08-05T11:35:55;2.22;;;2.13;;
6640;SDS011;3356;49.360;8.266;2022-08-05T11:37:58;2.53;;;2.33;;
6640;SDS011;3356;49.360;8.266;2022-08-05T11:40:00;2.40;;;2.20;;
6640;SDS011;3356;49.360;8.266;2022-08-05T11:42:01;2.83;;;2.60;;
6640;SDS011;3356;49.360;8.266;2022-08-05T11:44:12;3.05;;;2.35;;
6640;SDS011;3356;49.360;8.266;2022-08-05T11:46:15;2.80;;;2.60;;
6640;SDS011;3356;49.360;8.266;2022-08-05T11:48:17;5.47;;;2.38;;
6640;SDS011;3356;49.360;8.266;2022-08-05T11:50:18;2.42;;;2.13;;
6640;SDS011;3356;49.360;8.266;2022-08-05T11:52:25;3.53;;;2.17;;
6640;SDS011;3356;49.360;8.266;2022-08-05T11:54:29;3.38;;;2.22;;
6640;SDS011;3356;49.360;8.266;2022-08-05T11:56:49;10.30;;;2.97;;
6640;SDS011;3356;49.360;8.266;2022-08-05T11:58:52;4.70;;;2.85;;
6640;SDS011;3356;49.360;8.266;2022-08-05T12:01:06;2.38;;;2.05;;
6640;SDS011;3356;49.360;8.266;2022-08-05T12:03:18;5.43;;;2.95;;
6640;SDS011;3356;49.360;8.266;2022-08-05T12:05:26;3.15;;;2.53;;
6640;SDS011;3356;49.360;8.266;2022-08-05T12:07:32;3.00;;;2.58;;
6640;SDS011;3356;49.360;8.266;2022-08-05T12:09:41;3.47;;;2.67;;
6640;SDS011;3356;49.360;8.266;2022-08-05T12:11:52;4.65;;;3.05;;
6640;SDS011;3356;49.360;8.266;2022-08-05T12:14:01;2.72;;;2.53;;
6640;SDS011;3356;49.360;8.266;2022-08-05T12:16:04;2.53;;;2.35;;
6640;SDS011;3356;49.360;8.266;2022-08-05T12:18:07;3.97;;;2.50;;
6640;SDS011;3356;49.360;8.266;2022-08-05T12:20:08;6.20;;;2.90;;
6640;SDS011;3356;49.360;8.266;2022-08-05T12:22:11;2.50;;;2.30;;
6640;SDS011;3356;49.360;8.266;2022-08-05T12:24:18;3.17;;;2.88;;
6640;SDS011;3356;49.360;8.266;2022-08-05T12:26:20;3.38;;;2.60;;
6640;SDS011;3356;49.360;8.266;2022-08-05T12:30:36;2.78;;;2.50;;
6640;SDS011;3356;49.360;8.266;2022-08-05T12:32:44;5.57;;;2.63;;
6640;SDS011;3356;49.360;8.266;2022-08-05T12:34:46;3.78;;;2.63;;
6640;SDS011;3356;49.360;8.266;2022-08-05T12:36:48;2.35;;;2.22;;
6640;SDS011;3356;49.360;8.266;2022-08-05T12:38:52;2.70;;;2.55;;
6640;SDS011;3356;49.360;8.266;2022-08-05T12:40:55;2.58;;;2.38;;
6640;SDS011;3356;49.360;8.266;2022-08-05T12:42:56;4.00;;;2.40;;
6640;SDS011;3356;49.360;8.266;2022-08-05T12:45:05;2.30;;;2.20;;
6640;SDS011;3356;49.360;8.266;2022-08-05T12:47:07;2.70;;;2.33;;
6640;SDS011;3356;49.360;8.266;2022-08-05T12:51:12;4.70;;;2.20;;
6640;SDS011;3356;49.360;8.266;2022-08-05T12:53:16;2.70;;;2.50;;
6640;SDS011;3356;49.360;8.266;2022-08-05T12:55:18;4.03;;;2.50;;
6640;SDS011;3356;49.360;8.266;2022-08-05T12:57:24;2.60;;;2.40;;
6640;SDS011;3356;49.360;8.266;2022-08-05T13:01:32;5.50;;;2.42;;
6640;SDS011;3356;49.360;8.266;2022-08-05T13:03:36;5.18;;;2.72;;
6640;SDS011;3356;49.360;8.266;2022-08-05T13:05:38;2.55;;;2.22;;
6640;SDS011;3356;49.360;8.266;2022-08-05T13:07:40;2.13;;;2.03;;
6640;SDS011;3356;49.360;8.266;2022-08-05T13:09:47;2.88;;;2.42;;
6640;SDS011;3356;49.360;8.266;2022-08-05T13:12:02;3.20;;;2.35;;
6640;SDS011;3356;49.360;8.266;2022-08-05T13:16:18;4.88;;;2.60;;
6640;SDS011;3356;49.360;8.266;2022-08-05T13:18:19;3.22;;;2.40;;
6640;SDS011;3356;49.360;8.266;2022-08-05T13:20:20;2.47;;;2.20;;